Time,TemperatureF,DewpointF,PressureIn,WindDirection,WindDirectionDegrees,WindSpeedMPH,WindSpeedGustMPH,Humidity,HourlyPrecipIn,Conditions,Clouds,dailyrainin,SoftwareType,DateUTC
2013-04-11 00:02:00,21.2,7.6,29.94,NW,310,0.0,0.0,55,0.00,,---,0.00,VWS V14.01,2013-04-11 06:02:00,
2013-04-11 00:08:00,21.0,7.4,29.94,NW,306,0.0,0.0,55,0.00,,---,0.00,VWS V14.01,2013-04-11 06:08:00,
2013-04-11 00:13:00,21.0,7.4,29.94,NW,310,0.0,0.0,55,0.00,,---,0.00,VWS V14.01,2013-04-11 06:13:00,
2013-04-11 00:19:00,21.0,7.4,29.91,NW,304,0.0,0.0,55,0.00,,---,0.00,VWS V14.01,2013-04-11 06:19:00,
2013-04-11 00:25:00,21.2,7.6,29.91,WNW,297,0.0,0.0,55,0.00,,---,0.00,VWS V14.01,2013-04-11 06:25:00,
2013-04-11 00:30:00,21.2,7.6,29.91,WNW,303,0.0,0.0,55,0.00,,---,0.00,VWS V14.01,2013-04-11 06:30:00,
2013-04-11 00:36:00,21.2,8.0,29.91,West,276,0.0,0.0,56,0.00,,---,0.00,VWS V14.01,2013-04-11 06:36:00,
2013-04-11 00:41:00,21.4,7.7,29.91,WNW,288,0.0,0.0,55,0.00,,---,0.00,VWS V14.01,2013-04-11 06:41:00,
2013-04-11 00:47:00,21.6,8.3,29.91,WNW,291,0.0,0.0,56,0.00,,---,0.00,VWS V14.01,2013-04-11 06:47:00,
2013-04-11 00:52:00,21.7,8.5,29.91,WNW,294,0.0,0.0,56,0.00,,---,0.00,VWS V14.01,2013-04-11 06:52:00,
2013-04-11 00:57:00,21.7,8.5,29.91,WNW,288,0.0,0.0,56,0.00,,---,0.00,VWS V14.01,2013-04-11 06:57:00,
2013-04-11 01:03:00,21.7,8.5,29.91,WNW,289,0.0,0.0,56,0.00,,---,0.00,VWS V14.01,2013-04-11 07:03:00,
2013-04-11 01:08:00,21.7,8.5,29.91,WNW,282,0.0,0.0,56,0.00,,---,0.00,VWS V14.01,2013-04-11 07:08:00,
2013-04-11 01:14:00,21.6,8.3,29.91,WNW,287,0.0,0.0,56,0.00,,---,0.00,VWS V14.01,2013-04-11 07:14:00,
2013-04-11 01:19:00,21.4,8.1,29.91,WNW,290,0.0,0.0,56,0.00,,---,0.00,VWS V14.01,2013-04-11 07:19:00,
2013-04-11 01:25:00,21.2,8.4,29.88,WNW,293,0.0,0.0,57,0.00,,---,0.00,VWS V14.01,2013-04-11 07:25:00,
2013-04-11 01:30:00,21.4,8.5,29.88,WNW,286,0.0,0.0,57,0.00,,---,0.00,VWS V14.01,2013-04-11 07:30:00,
2013-04-11 01:37:00,21.2,8.4,29.88,WNW,294,0.0,0.0,57,0.00,,---,0.00,VWS V14.01,2013-04-11 07:37:00,
2013-04-11 01:43:00,21.0,8.2,29.88,WNW,289,0.0,0.0,57,0.00,,---,0.00,VWS V14.01,2013-04-11 07:43:00,
2013-04-11 01:49:00,20.8,8.4,29.88,West,275,0.0,0.0,58,0.00,,---,0.00,VWS V14.01,2013-04-11 07:49:00,
2013-04-11 01:54:00,21.0,8.6,29.88,West,271,0.0,0.0,58,0.00,,---,0.00,VWS V14.01,2013-04-11 07:54:00,
2013-04-11 02:00:00,21.0,8.6,29.88,West,276,0.0,0.0,58,0.00,,---,0.00,VWS V14.01,2013-04-11 08:00:00,
2013-04-11 02:05:00,20.8,8.4,29.88,West,281,0.0,0.0,58,0.00,,---,0.00,VWS V14.01,2013-04-11 08:05:00,
2013-04-11 02:10:00,20.5,8.1,29.88,West,265,0.0,0.0,58,0.00,,---,0.00,VWS V14.01,2013-04-11 08:10:00,
2013-04-11 02:17:00,20.1,7.7,29.88,West,261,0.0,0.0,58,0.00,,---,0.00,VWS V14.01,2013-04-11 08:17:00,
2013-04-11 02:22:00,19.8,7.4,29.85,West,270,0.0,0.0,58,0.00,,---,0.00,VWS V14.01,2013-04-11 08:22:00,
2013-04-11 02:27:00,19.4,7.1,29.85,West,268,0.0,0.0,58,0.00,,---,0.00,VWS V14.01,2013-04-11 08:27:00,
2013-04-11 02:32:00,19.0,7.1,29.85,West,264,0.0,0.0,59,0.00,,---,0.00,VWS V14.01,2013-04-11 08:32:00,
2013-04-11 02:38:00,18.7,6.7,29.85,West,263,0.0,0.0,59,0.00,,---,0.00,VWS V14.01,2013-04-11 08:38:00,
2013-04-11 02:44:00,18.7,6.7,29.85,West,260,0.0,0.0,59,0.00,,---,0.00,VWS V14.01,2013-04-11 08:44:00,
2013-04-11 02:49:00,18.5,6.9,29.85,West,266,0.0,0.0,60,0.00,,---,0.00,VWS V14.01,2013-04-11 08:49:00,
2013-04-11 02:55:00,18.5,6.9,29.85,West,269,0.0,0.0,60,0.00,,---,0.00,VWS V14.01,2013-04-11 08:55:00,
2013-04-11 03:00:00,18.3,6.8,29.85,West,272,0.0,0.0,60,0.00,,---,0.00,VWS V14.01,2013-04-11 09:00:00,
2013-04-11 03:05:00,18.5,7.3,29.82,West,262,0.0,0.0,61,0.00,,---,0.00,VWS V14.01,2013-04-11 09:05:00,
2013-04-11 03:10:00,18.5,7.3,29.82,WSW,256,0.0,0.0,61,0.00,,---,0.00,VWS V14.01,2013-04-11 09:10:00,
2013-04-11 03:16:00,18.9,8.0,29.82,West,274,0.0,0.0,62,0.00,,---,0.00,VWS V14.01,2013-04-11 09:16:00,
2013-04-11 03:21:00,19.2,8.4,29.82,West,277,0.0,0.0,62,0.00,,---,0.00,VWS V14.01,2013-04-11 09:21:00,
2013-04-11 03:27:00,19.4,8.9,29.82,West,273,0.0,0.0,63,0.00,,---,0.00,VWS V14.01,2013-04-11 09:27:00,
2013-04-11 03:32:00,19.6,8.7,29.82,West,275,0.0,0.0,62,0.00,,---,0.00,VWS V14.01,2013-04-11 09:32:00,
2013-04-11 03:38:00,19.4,8.5,29.82,West,272,0.0,0.0,62,0.00,,---,0.00,VWS V14.01,2013-04-11 09:38:00,
2013-04-11 03:43:00,19.2,8.4,29.82,West,276,0.0,0.0,62,0.00,,---,0.00,VWS V14.01,2013-04-11 09:43:00,
2013-04-11 03:49:00,18.9,8.0,29.82,West,271,0.0,0.0,62,0.00,,---,0.00,VWS V14.01,2013-04-11 09:49:00,
2013-04-11 03:54:00,18.3,7.1,29.82,WNW,282,0.0,0.0,61,0.00,,---,0.00,VWS V14.01,2013-04-11 09:54:00,
2013-04-11 03:59:00,17.6,6.4,29.82,WNW,284,0.0,0.0,61,0.00,,---,0.00,VWS V14.01,2013-04-11 09:59:00,
2013-04-11 04:04:00,17.1,5.9,29.82,West,278,0.0,0.0,61,0.00,,---,0.00,VWS V14.01,2013-04-11 10:04:00,
2013-04-11 04:10:00,16.7,5.6,29.82,West,280,0.0,0.0,61,0.00,,---,0.00,VWS V14.01,2013-04-11 10:10:00,
2013-04-11 04:15:00,16.5,5.4,29.82,West,271,0.0,0.0,61,0.00,,---,0.00,VWS V14.01,2013-04-11 10:15:00,
2013-04-11 04:20:00,16.5,5.4,29.82,WNW,284,0.0,0.0,61,0.00,,---,0.00,VWS V14.01,2013-04-11 10:20:00,
2013-04-11 04:26:00,16.0,4.9,29.79,West,271,0.0,0.0,61,0.00,,---,0.00,VWS V14.01,2013-04-11 10:26:00,
2013-04-11 04:32:00,16.0,4.9,29.79,West,271,0.0,0.0,61,0.00,,---,0.00,VWS V14.01,2013-04-11 10:32:00,
2013-04-11 04:37:00,15.8,5.1,29.79,West,271,0.0,0.0,62,0.00,,---,0.00,VWS V14.01,2013-04-11 10:37:00,
2013-04-11 04:43:00,15.8,5.1,29.79,WSW,254,0.0,0.0,62,0.00,,---,0.00,VWS V14.01,2013-04-11 10:43:00,
2013-04-11 04:48:00,15.8,5.1,29.79,WSW,254,0.0,0.0,62,0.00,,---,0.00,VWS V14.01,2013-04-11 10:48:00,
2013-04-11 04:54:00,15.4,4.4,29.79,West,278,0.0,0.0,61,0.00,,---,0.00,VWS V14.01,2013-04-11 10:54:00,
2013-04-11 04:59:00,15.4,4.4,29.79,West,278,0.0,0.0,61,0.00,,---,0.00,VWS V14.01,2013-04-11 10:59:00,
2013-04-11 05:04:00,15.1,4.1,29.79,West,278,0.0,0.0,61,0.00,,---,0.00,VWS V14.01,2013-04-11 11:04:00,
2013-04-11 05:10:00,15.3,4.6,29.79,WNW,286,0.0,0.0,62,0.00,,---,0.00,VWS V14.01,2013-04-11 11:10:00,
2013-04-11 05:16:00,15.3,4.6,29.79,West,270,0.0,0.0,62,0.00,,---,0.00,VWS V14.01,2013-04-11 11:16:00,
2013-04-11 05:22:00,15.3,4.2,29.76,West,271,0.0,0.0,61,0.00,,---,0.00,VWS V14.01,2013-04-11 11:22:00,
2013-04-11 05:28:00,14.9,3.9,29.76,West,270,0.0,0.0,61,0.00,,---,0.00,VWS V14.01,2013-04-11 11:28:00,
2013-04-11 05:34:00,14.9,4.2,29.76,WNW,297,0.0,0.0,62,0.00,,---,0.00,VWS V14.01,2013-04-11 11:34:00,
2013-04-11 05:40:00,15.1,4.4,29.76,WNW,297,0.0,0.0,62,0.00,,---,0.00,VWS V14.01,2013-04-11 11:40:00,
2013-04-11 05:45:00,15.1,4.1,29.76,West,268,0.0,0.0,61,0.00,,---,0.00,VWS V14.01,2013-04-11 11:45:00,
2013-04-11 05:50:00,15.1,4.1,29.79,West,268,0.0,0.0,61,0.00,,---,0.00,VWS V14.01,2013-04-11 11:50:00,
2013-04-11 05:55:00,14.5,3.5,29.79,WSW,252,0.0,0.0,61,0.00,,---,0.00,VWS V14.01,2013-04-11 11:55:00,
2013-04-11 06:00:00,14.4,3.0,29.79,West,265,0.0,0.0,60,0.00,,---,0.00,VWS V14.01,2013-04-11 12:00:00,
2013-04-11 06:06:00,14.0,3.0,29.79,West,265,0.0,0.0,61,0.00,,---,0.00,VWS V14.01,2013-04-11 12:06:00,
2013-04-11 06:11:00,13.6,2.7,29.79,West,267,0.0,0.0,61,0.00,,---,0.00,VWS V14.01,2013-04-11 12:11:00,
2013-04-11 06:17:00,13.8,2.9,29.79,WNW,287,0.0,0.0,61,0.00,,---,0.00,VWS V14.01,2013-04-11 12:17:00,
2013-04-11 06:22:00,14.2,3.2,29.79,West,275,0.0,0.0,61,0.00,,---,0.00,VWS V14.01,2013-04-11 12:22:00,
2013-04-11 06:27:00,14.2,3.2,29.79,West,279,0.0,0.0,61,0.00,,---,0.00,VWS V14.01,2013-04-11 12:27:00,
2013-04-11 06:33:00,14.4,3.4,29.79,WNW,290,0.0,0.0,61,0.00,,---,0.00,VWS V14.01,2013-04-11 12:33:00,
2013-04-11 06:38:00,14.2,3.2,29.79,WNW,291,0.0,0.0,61,0.00,,---,0.00,VWS V14.01,2013-04-11 12:38:00,
2013-04-11 06:43:00,14.2,3.2,29.79,WNW,291,0.0,0.0,61,0.00,,---,0.00,VWS V14.01,2013-04-11 12:43:00,
2013-04-11 06:48:00,14.2,3.2,29.79,WNW,291,0.0,0.0,61,0.00,,---,0.00,VWS V14.01,2013-04-11 12:48:00,
2013-04-11 06:54:00,14.4,3.4,29.79,WNW,295,0.0,0.0,61,0.00,,---,0.00,VWS V14.01,2013-04-11 12:54:00,
2013-04-11 06:59:00,14.4,3.4,29.79,WNW,295,0.0,0.0,61,0.00,,---,0.00,VWS V14.01,2013-04-11 12:59:00,
2013-04-11 07:04:00,15.6,4.9,29.79,WNW,300,0.0,0.0,62,0.00,,---,0.00,VWS V14.01,2013-04-11 13:04:00,
2013-04-11 07:09:00,16.0,5.3,29.79,NW,305,0.0,0.0,62,0.00,,---,0.00,VWS V14.01,2013-04-11 13:09:00,
2013-04-11 07:15:00,16.7,6.0,29.79,WNW,295,0.0,0.0,62,0.00,,---,0.00,VWS V14.01,2013-04-11 13:15:00,
2013-04-11 07:20:00,17.1,6.3,29.79,WNW,282,0.0,0.0,62,0.00,,---,0.00,VWS V14.01,2013-04-11 13:20:00,
2013-04-11 07:26:00,17.4,6.6,29.82,WNW,295,0.0,0.0,62,0.00,,---,0.00,VWS V14.01,2013-04-11 13:26:00,
2013-04-11 07:31:00,17.8,6.6,29.82,WNW,298,0.0,0.0,61,0.00,,---,0.00,VWS V14.01,2013-04-11 13:31:00,
2013-04-11 07:37:00,18.1,7.0,29.82,WNW,292,0.0,0.0,61,0.00,,---,0.00,VWS V14.01,2013-04-11 13:37:00,
2013-04-11 07:43:00,18.1,7.0,29.79,NW,306,0.0,0.0,61,0.00,,---,0.00,VWS V14.01,2013-04-11 13:43:00,
2013-04-11 07:48:00,18.3,7.1,29.79,WNW,302,0.0,0.0,61,0.00,,---,0.00,VWS V14.01,2013-04-11 13:48:00,
2013-04-11 07:53:00,19.0,7.8,29.79,WNW,292,0.0,0.0,61,0.00,,---,0.00,VWS V14.01,2013-04-11 13:53:00,
2013-04-11 07:58:00,19.2,8.0,29.79,WNW,300,0.0,0.0,61,0.00,,---,0.00,VWS V14.01,2013-04-11 13:58:00,
2013-04-11 08:03:00,19.9,8.7,29.79,WNW,303,0.0,0.0,61,0.00,,---,0.00,VWS V14.01,2013-04-11 14:03:00,
2013-04-11 08:09:00,20.3,9.0,29.79,WNW,294,0.0,0.0,61,0.00,,---,0.00,VWS V14.01,2013-04-11 14:09:00,
2013-04-11 08:14:00,20.5,8.8,29.79,WNW,294,0.0,0.0,60,0.00,,---,0.00,VWS V14.01,2013-04-11 14:14:00,
2013-04-11 08:19:00,20.8,9.2,29.79,WNW,286,0.0,0.0,60,0.00,,---,0.00,VWS V14.01,2013-04-11 14:19:00,
2013-04-11 08:25:00,20.8,8.8,29.79,WNW,291,0.0,0.0,59,0.00,,---,0.00,VWS V14.01,2013-04-11 14:25:00,
2013-04-11 08:30:00,21.2,9.1,29.79,WNW,294,0.0,0.0,59,0.00,,---,0.00,VWS V14.01,2013-04-11 14:30:00,
2013-04-11 08:36:00,21.2,8.7,29.79,WNW,284,0.0,0.0,58,0.00,,---,0.00,VWS V14.01,2013-04-11 14:36:00,
2013-04-11 08:42:00,21.7,9.2,29.79,WNW,295,0.0,0.0,58,0.00,,---,0.00,VWS V14.01,2013-04-11 14:42:00,
2013-04-11 08:47:00,22.5,9.9,29.79,WNW,289,0.0,0.0,58,0.00,,---,0.00,VWS V14.01,2013-04-11 14:47:00,
2013-04-11 08:53:00,22.6,10.1,29.79,WNW,300,0.0,0.0,58,0.00,,---,0.00,VWS V14.01,2013-04-11 14:53:00,
2013-04-11 08:58:00,23.2,9.8,29.79,WNW,300,0.0,0.0,56,0.00,,---,0.00,VWS V14.01,2013-04-11 14:58:00,
2013-04-11 09:03:00,23.5,9.8,29.79,WNW,296,0.0,0.0,55,0.00,,---,0.00,VWS V14.01,2013-04-11 15:03:00,
2013-04-11 09:08:00,23.5,9.8,29.79,WNW,287,0.0,0.0,55,0.00,,---,0.00,VWS V14.01,2013-04-11 15:08:00,
2013-04-11 09:13:00,23.9,9.7,29.79,WNW,299,0.0,0.0,54,0.00,,---,0.00,VWS V14.01,2013-04-11 15:13:00,
2013-04-11 09:18:00,23.9,9.7,29.79,WNW,297,0.0,0.0,54,0.00,,---,0.00,VWS V14.01,2013-04-11 15:18:00,
2013-04-11 09:24:00,23.9,9.7,29.79,West,268,0.0,0.0,54,0.00,,---,0.00,VWS V14.01,2013-04-11 15:24:00,
2013-04-11 09:29:00,24.3,9.2,29.79,West,272,0.0,0.0,52,0.00,,---,0.00,VWS V14.01,2013-04-11 15:29:00,
2013-04-11 09:35:00,24.1,9.0,29.79,WNW,300,0.0,0.0,52,0.00,,---,0.00,VWS V14.01,2013-04-11 15:35:00,
2013-04-11 09:40:00,24.4,9.4,29.79,WNW,295,0.0,0.0,52,0.00,,---,0.00,VWS V14.01,2013-04-11 15:40:00,
2013-04-11 09:46:00,24.8,10.1,29.79,WNW,297,0.0,0.0,53,0.00,,---,0.00,VWS V14.01,2013-04-11 15:46:00,
2013-04-11 09:51:00,25.5,10.4,29.79,WNW,287,0.0,0.0,52,0.00,,---,0.00,VWS V14.01,2013-04-11 15:51:00,
2013-04-11 09:56:00,25.9,10.3,29.79,WSW,257,0.0,0.0,51,0.00,,---,0.00,VWS V14.01,2013-04-11 15:56:00,
2013-04-11 10:01:00,25.9,10.3,29.79,West,280,0.0,0.0,51,0.00,,---,0.00,VWS V14.01,2013-04-11 16:01:00,
2013-04-11 10:06:00,26.6,10.9,29.79,WNW,293,0.0,0.0,51,0.00,,---,0.00,VWS V14.01,2013-04-11 16:06:00,
2013-04-11 10:11:00,27.0,10.8,29.79,WNW,294,0.0,0.0,50,0.00,,---,0.00,VWS V14.01,2013-04-11 16:11:00,
2013-04-11 10:17:00,27.0,10.4,29.79,West,280,0.0,0.0,49,0.00,,---,0.00,VWS V14.01,2013-04-11 16:17:00,
2013-04-11 10:22:00,27.5,10.4,29.79,NW,306,0.0,0.0,48,0.00,,---,0.00,VWS V14.01,2013-04-11 16:22:00,
2013-04-11 10:28:00,27.5,10.4,29.79,NW,305,0.0,0.0,48,0.00,,---,0.00,VWS V14.01,2013-04-11 16:28:00,
2013-04-11 10:33:00,28.0,9.9,29.79,WNW,298,0.0,0.0,46,0.00,,---,0.00,VWS V14.01,2013-04-11 16:33:00,
2013-04-11 10:39:00,28.0,9.4,29.79,WNW,295,0.0,0.0,45,0.00,,---,0.00,VWS V14.01,2013-04-11 16:39:00,
2013-04-11 10:45:00,28.0,9.4,29.79,WNW,302,0.0,0.0,45,0.00,,---,0.00,VWS V14.01,2013-04-11 16:45:00,
2013-04-11 10:50:00,28.0,9.9,29.79,WNW,295,0.0,0.0,46,0.00,,---,0.00,VWS V14.01,2013-04-11 16:50:00,
2013-04-11 10:56:00,28.0,9.4,29.79,NW,310,0.0,0.0,45,0.00,,---,0.00,VWS V14.01,2013-04-11 16:56:00,
2013-04-11 11:02:00,28.0,9.4,29.79,WNW,298,0.0,0.0,45,0.00,,---,0.00,VWS V14.01,2013-04-11 17:02:00,
2013-04-11 11:08:00,28.0,9.4,29.79,WNW,295,9.2,9.2,45,0.00,,---,0.00,VWS V14.01,2013-04-11 17:08:00,
2013-04-11 11:14:00,28.2,9.6,29.79,WNW,297,21.9,21.9,45,0.00,,---,0.00,VWS V14.01,2013-04-11 17:14:00,
2013-04-11 11:19:00,28.2,9.6,29.79,WNW,295,17.4,17.4,45,0.00,,---,0.00,VWS V14.01,2013-04-11 17:19:00,
2013-04-11 11:24:00,28.2,9.6,29.79,WNW,303,15.4,21.0,45,0.00,,---,0.00,VWS V14.01,2013-04-11 17:24:00,
2013-04-11 11:29:00,28.2,9.6,29.79,WNW,291,17.4,17.4,45,0.00,,---,0.00,VWS V14.01,2013-04-11 17:29:00,
2013-04-11 11:35:00,28.8,10.6,29.79,WNW,289,19.7,19.7,46,0.00,,---,0.00,VWS V14.01,2013-04-11 17:35:00,
2013-04-11 11:40:00,28.9,10.3,29.79,WNW,298,16.8,17.4,45,0.00,,---,0.00,VWS V14.01,2013-04-11 17:40:00,
2013-04-11 11:45:00,28.9,10.3,29.79,NW,306,19.2,19.2,45,0.00,,---,0.00,VWS V14.01,2013-04-11 17:45:00,
2013-04-11 11:50:00,29.7,11.4,29.79,NW,314,15.4,17.4,46,0.00,,---,0.00,VWS V14.01,2013-04-11 17:50:00,
2013-04-11 11:56:00,29.7,11.4,29.79,WNW,298,17.9,18.8,46,0.00,,---,0.00,VWS V14.01,2013-04-11 17:56:00,
2013-04-11 12:02:00,30.2,11.4,29.79,WNW,302,14.1,18.3,45,0.00,,---,0.00,VWS V14.01,2013-04-11 18:02:00,
2013-04-11 12:08:00,30.4,11.6,29.79,WNW,297,20.6,20.6,45,0.00,,---,0.00,VWS V14.01,2013-04-11 18:08:00,
2013-04-11 12:13:00,30.9,12.1,29.79,WNW,297,16.8,16.8,45,0.00,,---,0.00,VWS V14.01,2013-04-11 18:13:00,
2013-04-11 12:19:00,30.9,12.1,29.79,WNW,294,17.4,17.9,45,0.00,,---,0.00,VWS V14.01,2013-04-11 18:19:00,
2013-04-11 12:24:00,30.7,11.9,29.79,WNW,294,21.0,21.0,45,0.00,,---,0.00,VWS V14.01,2013-04-11 18:24:00,
2013-04-11 12:30:00,30.7,11.9,29.79,WNW,298,21.0,21.0,45,0.00,,---,0.00,VWS V14.01,2013-04-11 18:30:00,
2013-04-11 12:35:00,30.7,12.4,29.79,WNW,289,20.1,20.1,46,0.00,,---,0.00,VWS V14.01,2013-04-11 18:35:00,
2013-04-11 12:41:00,31.3,12.9,29.79,WNW,298,18.3,18.3,46,0.00,,---,0.00,VWS V14.01,2013-04-11 18:41:00,
2013-04-11 12:47:00,31.8,13.4,29.79,WNW,301,20.6,20.6,46,0.00,,---,0.00,VWS V14.01,2013-04-11 18:47:00,
2013-04-11 12:52:00,31.8,13.4,29.79,WNW,284,23.3,23.3,46,0.00,,---,0.00,VWS V14.01,2013-04-11 18:52:00,
2013-04-11 12:58:00,31.6,12.8,29.79,WNW,290,21.5,21.5,45,0.00,,---,0.00,VWS V14.01,2013-04-11 18:58:00,
2013-04-11 13:04:00,31.5,12.6,29.79,WNW,295,24.2,24.2,45,0.00,,---,0.00,VWS V14.01,2013-04-11 19:04:00,
2013-04-11 13:10:00,31.6,12.8,29.79,WNW,296,13.2,23.7,45,0.00,,---,0.00,VWS V14.01,2013-04-11 19:10:00,
2013-04-11 13:16:00,32.0,13.1,29.76,WNW,299,25.7,25.7,45,0.00,,---,0.00,VWS V14.01,2013-04-11 19:16:00,
2013-04-11 13:22:00,32.2,13.7,29.76,West,281,19.7,19.7,46,0.00,,---,0.00,VWS V14.01,2013-04-11 19:22:00,
2013-04-11 13:27:00,32.7,14.2,29.76,WNW,292,24.2,24.2,46,0.00,,---,0.00,VWS V14.01,2013-04-11 19:27:00,
2013-04-11 13:32:00,32.7,13.7,29.76,WNW,287,23.3,23.3,45,0.00,,---,0.00,VWS V14.01,2013-04-11 19:32:00,
2013-04-11 13:37:00,32.7,13.7,29.76,WNW,287,18.3,26.2,45,0.00,,---,0.00,VWS V14.01,2013-04-11 19:37:00,
2013-04-11 13:43:00,32.7,13.7,29.76,WNW,293,22.8,22.8,45,0.00,,---,0.00,VWS V14.01,2013-04-11 19:43:00,
2013-04-11 13:48:00,32.9,12.9,29.76,WNW,299,23.7,23.7,43,0.00,,---,0.00,VWS V14.01,2013-04-11 19:48:00,
2013-04-11 13:54:00,33.1,13.0,29.76,WNW,294,25.5,25.5,43,0.00,,---,0.00,VWS V14.01,2013-04-11 19:54:00,
2013-04-11 13:59:00,33.3,13.2,29.76,WNW,294,23.7,24.2,43,0.00,,---,0.00,VWS V14.01,2013-04-11 19:59:00,
2013-04-11 14:05:00,33.3,12.7,29.76,WNW,302,18.8,18.8,42,0.00,,---,0.00,VWS V14.01,2013-04-11 20:05:00,
2013-04-11 14:10:00,33.8,13.1,29.76,WNW,298,23.7,23.7,42,0.00,,---,0.00,VWS V14.01,2013-04-11 20:10:00,
2013-04-11 14:17:00,33.6,13.0,29.76,West,268,22.4,22.4,42,0.00,,---,0.00,VWS V14.01,2013-04-11 20:17:00,
2013-04-11 14:23:00,33.8,13.1,29.76,West,271,11.4,16.3,42,0.00,,---,0.00,VWS V14.01,2013-04-11 20:23:00,
2013-04-11 14:29:00,33.8,13.1,29.76,West,259,15.4,15.4,42,0.00,,---,0.00,VWS V14.01,2013-04-11 20:29:00,
2013-04-11 14:34:00,34.3,13.6,29.76,WNW,300,16.8,16.8,42,0.00,,---,0.00,VWS V14.01,2013-04-11 20:34:00,
2013-04-11 14:40:00,34.9,14.1,29.76,WNW,286,21.5,21.5,42,0.00,,---,0.00,VWS V14.01,2013-04-11 20:40:00,
2013-04-11 14:46:00,35.2,14.5,29.76,WNW,297,20.1,20.1,42,0.00,,---,0.00,VWS V14.01,2013-04-11 20:46:00,
2013-04-11 14:52:00,35.2,14.5,29.76,WNW,290,15.0,18.3,42,0.00,,---,0.00,VWS V14.01,2013-04-11 20:52:00,
2013-04-11 14:57:00,35.2,14.5,29.76,NW,307,25.1,25.1,42,0.00,,---,0.00,VWS V14.01,2013-04-11 20:57:00,
2013-04-11 15:03:00,35.2,14.5,29.76,NW,311,22.8,26.6,42,0.00,,---,0.00,VWS V14.01,2013-04-11 21:03:00,
2013-04-11 15:08:00,35.8,13.8,29.76,WNW,290,20.1,20.6,40,0.00,,---,0.00,VWS V14.01,2013-04-11 21:08:00,
2013-04-11 15:13:00,35.8,13.8,29.76,WNW,300,23.3,23.3,40,0.00,,---,0.00,VWS V14.01,2013-04-11 21:13:00,
2013-04-11 15:18:00,35.8,13.8,29.76,NW,305,22.8,22.8,40,0.00,,---,0.00,VWS V14.01,2013-04-11 21:18:00,
2013-04-11 15:24:00,36.3,14.3,29.76,NW,304,22.4,22.4,40,0.00,,---,0.00,VWS V14.01,2013-04-11 21:24:00,
2013-04-11 15:29:00,36.3,14.3,29.76,WNW,298,16.8,16.8,40,0.00,,---,0.00,VWS V14.01,2013-04-11 21:29:00,
2013-04-11 15:35:00,36.7,14.6,29.76,NW,304,19.7,19.7,40,0.00,,---,0.00,VWS V14.01,2013-04-11 21:35:00,
2013-04-11 15:41:00,36.7,14.6,29.73,NW,316,19.7,23.7,40,0.00,,---,0.00,VWS V14.01,2013-04-11 21:41:00,
2013-04-11 15:46:00,36.5,14.5,29.73,NW,305,25.1,25.1,40,0.00,,---,0.00,VWS V14.01,2013-04-11 21:46:00,
2013-04-11 15:52:00,36.9,14.8,29.73,WNW,299,19.2,19.2,40,0.00,,---,0.00,VWS V14.01,2013-04-11 21:52:00,
2013-04-11 15:57:00,37.2,15.1,29.73,NW,314,17.9,17.9,40,0.00,,---,0.00,VWS V14.01,2013-04-11 21:57:00,
2013-04-11 16:03:00,37.2,15.1,29.73,WNW,294,23.7,23.7,40,0.00,,---,0.00,VWS V14.01,2013-04-11 22:03:00,
2013-04-11 16:08:00,37.4,14.7,29.73,WNW,294,25.1,25.1,39,0.00,,---,0.00,VWS V14.01,2013-04-11 22:08:00,
2013-04-11 16:15:00,37.4,14.7,29.76,WNW,300,17.4,17.4,39,0.00,,---,0.00,VWS V14.01,2013-04-11 22:15:00,
2013-04-11 16:21:00,37.2,14.6,29.76,WNW,301,25.1,26.2,39,0.00,,---,0.00,VWS V14.01,2013-04-11 22:21:00,
2013-04-11 16:26:00,37.2,14.6,29.76,West,281,18.3,20.6,39,0.00,,---,0.00,VWS V14.01,2013-04-11 22:26:00,
2013-04-11 16:32:00,37.2,14.6,29.76,NNW,335,15.4,24.2,39,0.00,,---,0.00,VWS V14.01,2013-04-11 22:32:00,
2013-04-11 16:38:00,36.9,14.2,29.76,WNW,300,22.4,24.2,39,0.00,,---,0.00,VWS V14.01,2013-04-11 22:38:00,
2013-04-11 16:43:00,36.7,14.1,29.76,WNW,295,19.7,19.7,39,0.00,,---,0.00,VWS V14.01,2013-04-11 22:43:00,
2013-04-11 16:49:00,36.3,13.8,29.76,NW,310,15.9,17.4,39,0.00,,---,0.00,VWS V14.01,2013-04-11 22:49:00,
2013-04-11 16:55:00,35.8,13.3,29.76,WNW,290,22.8,23.3,39,0.00,,---,0.00,VWS V14.01,2013-04-11 22:55:00,
2013-04-11 17:00:00,35.6,13.1,29.76,WNW,295,19.2,19.2,39,0.00,,---,0.00,VWS V14.01,2013-04-11 23:00:00,
2013-04-11 17:06:00,35.6,13.1,29.76,NW,310,15.4,18.3,39,0.00,,---,0.00,VWS V14.01,2013-04-11 23:06:00,
2013-04-11 17:11:00,35.6,13.7,29.76,NW,306,11.0,17.4,40,0.00,,---,0.00,VWS V14.01,2013-04-11 23:11:00,
2013-04-11 17:16:00,36.1,14.2,29.76,WNW,299,15.4,15.4,40,0.00,,---,0.00,VWS V14.01,2013-04-11 23:16:00,
2013-04-11 17:21:00,36.1,14.2,29.76,WNW,301,20.6,23.7,40,0.00,,---,0.00,VWS V14.01,2013-04-11 23:21:00,
2013-04-11 17:27:00,35.8,13.8,29.76,NW,304,22.8,24.2,40,0.00,,---,0.00,VWS V14.01,2013-04-11 23:27:00,
2013-04-11 17:32:00,35.6,13.7,29.76,WNW,299,19.7,22.8,40,0.00,,---,0.00,VWS V14.01,2013-04-11 23:32:00,
2013-04-11 17:37:00,35.8,13.8,29.76,WNW,298,17.4,23.3,40,0.00,,---,0.00,VWS V14.01,2013-04-11 23:37:00,
2013-04-11 17:44:00,35.8,13.8,29.76,WNW,299,17.0,19.2,40,0.00,,---,0.00,VWS V14.01,2013-04-11 23:44:00,
2013-04-11 17:49:00,35.6,13.7,29.76,WNW,288,20.6,20.6,40,0.00,,---,0.00,VWS V14.01,2013-04-11 23:49:00,
2013-04-11 17:54:00,35.4,13.5,29.76,NW,315,19.7,20.1,40,0.00,,---,0.00,VWS V14.01,2013-04-11 23:54:00,
2013-04-11 17:59:00,34.9,13.0,29.76,WNW,289,12.8,15.0,40,0.00,,---,0.00,VWS V14.01,2013-04-11 23:59:00,
2013-04-11 18:05:00,34.9,13.6,29.79,NW,309,10.5,17.9,41,0.00,,---,0.00,VWS V14.01,2013-04-12 00:05:00,
2013-04-11 18:10:00,34.5,13.3,29.79,WNW,301,16.3,18.8,41,0.00,,---,0.00,VWS V14.01,2013-04-12 00:10:00,
2013-04-11 18:16:00,34.5,13.3,29.79,NW,310,15.4,19.7,41,0.00,,---,0.00,VWS V14.01,2013-04-12 00:16:00,
2013-04-11 18:21:00,34.3,13.6,29.79,NW,314,14.5,14.5,42,0.00,,---,0.00,VWS V14.01,2013-04-12 00:21:00,
2013-04-11 18:27:00,34.3,13.6,29.79,NW,307,15.4,17.4,42,0.00,,---,0.00,VWS V14.01,2013-04-12 00:27:00,
2013-04-11 18:32:00,34.3,14.2,29.79,NW,305,11.0,15.4,43,0.00,,---,0.00,VWS V14.01,2013-04-12 00:32:00,
2013-04-11 18:38:00,34.3,14.2,29.79,NW,310,15.0,15.0,43,0.00,,---,0.00,VWS V14.01,2013-04-12 00:38:00,
2013-04-11 18:44:00,34.3,14.7,29.79,WNW,300,8.7,11.0,44,0.00,,---,0.00,VWS V14.01,2013-04-12 00:44:00,
2013-04-11 18:49:00,34.3,15.2,29.79,WNW,300,8.3,12.8,45,0.00,,---,0.00,VWS V14.01,2013-04-12 00:49:00,
2013-04-11 18:54:00,34.3,14.7,29.79,NNW,332,17.4,17.4,44,0.00,,---,0.00,VWS V14.01,2013-04-12 00:54:00,
2013-04-11 19:01:00,34.3,14.2,29.79,NW,310,15.4,15.4,43,0.00,,---,0.00,VWS V14.01,2013-04-12 01:01:00,
2013-04-11 19:06:00,34.2,14.0,29.79,NW,321,12.8,13.2,43,0.00,,---,0.00,VWS V14.01,2013-04-12 01:06:00,
2013-04-11 19:12:00,34.2,14.0,29.79,NW,317,12.8,15.4,43,0.00,,---,0.00,VWS V14.01,2013-04-12 01:12:00,
2013-04-11 19:17:00,34.2,14.5,29.79,NW,322,11.0,12.8,44,0.00,,---,0.00,VWS V14.01,2013-04-12 01:17:00,
2013-04-11 19:23:00,34.0,14.4,29.79,NNW,328,12.8,16.8,44,0.00,,---,0.00,VWS V14.01,2013-04-12 01:23:00,
2013-04-11 19:28:00,34.0,14.4,29.79,NNW,335,7.6,15.0,44,0.00,,---,0.00,VWS V14.01,2013-04-12 01:28:00,
2013-04-11 19:34:00,33.8,14.2,29.79,NNW,343,11.0,12.8,44,0.00,,---,0.00,VWS V14.01,2013-04-12 01:34:00,
2013-04-11 19:39:00,33.6,14.6,29.79,North,0,15.0,15.0,45,0.00,,---,0.00,VWS V14.01,2013-04-12 01:39:00,
2013-04-11 19:45:00,33.1,13.6,29.79,North,0,12.8,13.2,44,0.00,,---,0.00,VWS V14.01,2013-04-12 01:45:00,
2013-04-11 19:50:00,32.5,13.6,29.82,North,357,12.8,15.0,45,0.00,,---,0.00,VWS V14.01,2013-04-12 01:50:00,
2013-04-11 19:55:00,32.4,13.4,29.82,NNW,341,10.5,14.5,45,0.00,,---,0.00,VWS V14.01,2013-04-12 01:55:00,
2013-04-11 20:00:00,32.2,13.7,29.82,North,357,10.1,11.9,46,0.00,,---,0.00,VWS V14.01,2013-04-12 02:00:00,
2013-04-11 20:06:00,32.0,13.6,29.79,NNE,15,15.9,15.9,46,0.00,,---,0.00,VWS V14.01,2013-04-12 02:06:00,
2013-04-11 20:11:00,31.8,13.9,29.79,North,0,10.5,15.4,47,0.00,,---,0.00,VWS V14.01,2013-04-12 02:11:00,
2013-04-11 20:16:00,31.6,13.7,29.79,North,0,8.3,12.3,47,0.00,,---,0.00,VWS V14.01,2013-04-12 02:16:00,
2013-04-11 20:23:00,31.5,13.6,29.82,North,0,13.2,15.4,47,0.00,,---,0.00,VWS V14.01,2013-04-12 02:23:00,
2013-04-11 20:29:00,31.3,13.4,29.82,North,349,10.5,12.8,47,0.00,,---,0.00,VWS V14.01,2013-04-12 02:29:00,
2013-04-11 20:34:00,31.1,13.2,29.82,NNW,335,10.1,12.3,47,0.00,,---,0.00,VWS V14.01,2013-04-12 02:34:00,
2013-04-11 20:40:00,30.9,13.1,29.82,NNW,341,10.1,14.5,47,0.00,,---,0.00,VWS V14.01,2013-04-12 02:40:00,
2013-04-11 20:46:00,30.7,12.9,29.82,NNW,331,10.1,10.5,47,0.00,,---,0.00,VWS V14.01,2013-04-12 02:46:00,
2013-04-11 20:52:00,30.6,13.2,29.82,NNW,329,8.1,8.7,48,0.00,,---,0.00,VWS V14.01,2013-04-12 02:52:00,
2013-04-11 20:57:00,30.4,13.1,29.82,NW,322,8.1,9.2,48,0.00,,---,0.00,VWS V14.01,2013-04-12 02:57:00,
2013-04-11 21:02:00,30.2,12.9,29.82,NW,325,10.1,10.1,48,0.00,,---,0.00,VWS V14.01,2013-04-12 03:02:00,
2013-04-11 21:08:00,30.2,13.4,29.85,NW,314,8.1,11.0,49,0.00,,---,0.00,VWS V14.01,2013-04-12 03:08:00,
2013-04-11 21:14:00,30.2,13.4,29.85,NW,320,8.7,8.7,49,0.00,,---,0.00,VWS V14.01,2013-04-12 03:14:00,
2013-04-11 21:20:00,30.0,13.2,29.85,NW,325,8.3,12.8,49,0.00,,---,0.00,VWS V14.01,2013-04-12 03:20:00,
2013-04-11 21:26:00,30.0,13.6,29.85,NW,319,11.0,11.0,50,0.00,,---,0.00,VWS V14.01,2013-04-12 03:26:00,
2013-04-11 21:32:00,29.8,13.5,29.85,NNW,329,8.3,13.6,50,0.00,,---,0.00,VWS V14.01,2013-04-12 03:32:00,
2013-04-11 21:37:00,29.7,13.3,29.85,NW,320,10.1,10.5,50,0.00,,---,0.00,VWS V14.01,2013-04-12 03:37:00,
2013-04-11 21:42:00,29.7,13.8,29.85,NW,320,10.1,12.8,51,0.00,,---,0.00,VWS V14.01,2013-04-12 03:42:00,
2013-04-11 21:47:00,29.7,13.8,29.85,NNW,333,8.7,8.7,51,0.00,,---,0.00,VWS V14.01,2013-04-12 03:47:00,
2013-04-11 21:53:00,29.5,13.1,29.85,NW,324,11.4,11.4,50,0.00,,---,0.00,VWS V14.01,2013-04-12 03:53:00,
2013-04-11 21:58:00,29.3,13.0,29.85,NNW,340,10.5,11.0,50,0.00,,---,0.00,VWS V14.01,2013-04-12 03:58:00,
2013-04-11 22:01:00,29.1,12.8,29.85,NNW,340,7.6,12.8,50,0.00,,---,0.00,VWS V14.01,2013-04-12 04:01:00,
2013-04-11 22:03:00,29.1,12.8,29.85,NNW,332,9.6,11.4,50,0.00,,---,0.00,VWS V14.01,2013-04-12 04:03:00,
2013-04-11 22:07:00,28.9,13.1,29.85,NNW,328,8.7,14.1,51,0.00,,---,0.00,VWS V14.01,2013-04-12 04:07:00,
2013-04-11 22:10:00,28.9,13.1,29.85,NW,322,12.3,14.5,51,0.00,,---,0.00,VWS V14.01,2013-04-12 04:10:00,
2013-04-11 22:15:00,29.1,13.3,29.85,NW,312,6.3,8.7,51,0.00,,---,0.00,VWS V14.01,2013-04-12 04:15:00,
2013-04-11 22:22:00,29.3,13.4,29.88,NW,311,8.7,9.6,51,0.00,,---,0.00,VWS V14.01,2013-04-12 04:22:00,
2013-04-11 22:27:00,29.5,13.6,29.88,NW,312,7.6,8.7,51,0.00,,---,0.00,VWS V14.01,2013-04-12 04:27:00,
2013-04-11 22:33:00,29.5,13.6,29.88,WNW,299,8.1,8.1,51,0.00,,---,0.00,VWS V14.01,2013-04-12 04:33:00,
2013-04-11 22:38:00,29.7,14.2,29.88,NW,307,5.8,10.1,52,0.00,,---,0.00,VWS V14.01,2013-04-12 04:38:00,
2013-04-11 22:44:00,29.8,14.4,29.88,NW,313,7.2,8.7,52,0.00,,---,0.00,VWS V14.01,2013-04-12 04:44:00,
2013-04-11 22:49:00,29.8,14.4,29.88,NW,312,11.0,13.2,52,0.00,,---,0.00,VWS V14.01,2013-04-12 04:49:00,
2013-04-11 22:54:00,30.0,14.1,29.88,NW,306,8.1,8.3,51,0.00,,---,0.00,VWS V14.01,2013-04-12 04:54:00,
2013-04-11 23:00:00,30.0,14.1,29.88,WNW,301,8.3,9.2,51,0.00,,---,0.00,VWS V14.01,2013-04-12 05:00:00,
2013-04-11 23:05:00,30.0,14.1,29.88,NW,305,8.7,13.2,51,0.00,,---,0.00,VWS V14.01,2013-04-12 05:05:00,
2013-04-11 23:11:00,30.0,14.1,29.88,NW,314,7.6,11.0,51,0.00,,---,0.00,VWS V14.01,2013-04-12 05:11:00,
2013-04-11 23:17:00,30.0,13.6,29.88,NW,325,10.1,11.0,50,0.00,,---,0.00,VWS V14.01,2013-04-12 05:17:00,
2013-04-11 23:22:00,29.8,13.5,29.88,NNW,337,8.1,10.1,50,0.00,,---,0.00,VWS V14.01,2013-04-12 05:22:00,
2013-04-11 23:27:00,29.8,13.5,29.88,NW,326,8.3,8.3,50,0.00,,---,0.00,VWS V14.01,2013-04-12 05:27:00,
2013-04-11 23:33:00,29.8,13.5,29.88,NNW,332,5.8,6.3,50,0.00,,---,0.00,VWS V14.01,2013-04-12 05:33:00,
2013-04-11 23:38:00,29.8,13.5,29.88,NW,317,5.4,8.7,50,0.00,,---,0.00,VWS V14.01,2013-04-12 05:38:00,
2013-04-11 23:43:00,29.8,13.9,29.88,NW,311,10.1,10.1,51,0.00,,---,0.00,VWS V14.01,2013-04-12 05:43:00,
2013-04-11 23:49:00,29.8,13.9,29.88,NW,310,5.8,8.3,51,0.00,,---,0.00,VWS V14.01,2013-04-12 05:49:00,
2013-04-11 23:55:00,29.8,13.9,29.88,NW,325,7.2,8.1,51,0.00,,---,0.00,VWS V14.01,2013-04-12 05:55:00,